Relevés horaires Bierset (Belgique)


Relevés horaires à Bierset - Vendredi 31 Août 2018
Heure UTC1 Température [°C] Vent [km/h] Hum. [%] Pres.4 [hPa] Visi. [Km] Nébu. [octa] Préc.5 [mm] Cond.
2m. Res. Ros. Dir.2 Vit. Moy. Raf.3
23:00 12.5 12.5 7.7 E 1.9 3.7 3.7 73 1025(0.6/3h) 30 0/8 -- --
22:00 12.2 12.2 8.1 N 1.9 3.7 5.6 76 1025.1(1.0/3h) 30 0/8 -- --
21:00 13.0 13.0 6.9 N 3.7 7.4 11.1 66 1024.8(1.4/3h) 30 0/8 -- --
20:00 13.8 13.8 6.4 NNE 3.7 5.6 7.4 61 1024.3(1.2/3h) 30 1/8 -- --
19:00 14.4 14.4 6.3 N 5.6 7.4 11.1 58 1023.9(0.9/3h) 30 2/8 -- --
18:00 16.6 16.6 5.6 N 5.6 9.3 16.7 48 1023.1(0.3/3h) 20 3/8 0/12h
--
17:00 17.2 17.2 5.7 N 7.4 9.3 13.0 47 1022.9(0.3/3h) 20 3/8 -- --
16:00 18.2 18.2 3.8 NNE 5.6 7.4 11.1 38 1022.6(-0.1/3h) 20 5/8 -- --
15:00 18.7 18.7 5.1 N 7.4 9.3 16.7 41 1022.6(-0.2/3h) 20 5/8 -- --
14:00 18.5 18.5 5.2 NE 7.4 9.3 14.8 42 1022.4(-0.5/3h) 20 5/8 -- --
13:00 18.2 18.2 5.2 N 7.4 9.3 16.7 42 1022.7(-0.6/3h) 20 5/8 -- --
12:00 18.6 18.6 6.0 NE 3.7 9.3 16.7 44 1022.8(-0.7/3h) 20 5/8 0/6h
--
11:00 17.5 17.5 7.1 NE 5.6 5.6 16.7 50 1023.1(-0.2/3h) 20 5/8 -- --
10:00 16.3 16.3 9.1 ENE 5.6 7.4 11.1 62 1023.5(0.3/3h) 20 7/8 -- --
09:00 14.2 14.2 10.3 NNE 5.6 5.6 7.4 77 1023.8(0.9/3h) 20 7/8 -- --
08:00 12.3 12.3 10.1 N 3.7 3.7 3.7 86 1023.7(1.0/3h) 20 7/8 -- --
07:00 11.5 11.5 9.5 N 3.7 3.7 3.7 88 1023.5(0.8/3h) 20 7/8 -- --
06:00 10.9 10.9 9.1 NNO 0.0 3.7 7.4 89 1023.2(0.3/3h) 20 7/8 0/12h
--
05:00 11.1 11.1 8.8 N 1.9 3.7 7.4 86 1022.8(-0.2/3h) 20 7/8 -- --
04:00 11.0 11.0 8.9 NNE 1.9 3.7 7.4 87 1022.7(-0.4/3h) 35 4/8 -- --
03:00 11.7 11.7 8.7 N 1.9 3.7 7.4 82 1022.8(-0.4/3h) 35 7/8 -- --
02:00 11.3 11.3 8.7 N 1.9 1.9 1.9 84 1023(-0.7/3h) 40 7/8 -- --
01:00 11.8 11.8 8.5 N 1.9 3.7 3.7 80 1023.1(-0.3/3h) 40 5/8 -- --
00:00 11.8 11.8 8.3 N 3.7 3.7 5.6 79 1023.3(-0.3/3h) 40 2/8 0/6h
1.8/24h
--

1 Coordinated Universal Time. Actuellement il est 08:00 locale et 06:00 UTC.

2 Le vent souffle depuis la direction indiquée vers la direction oposée.

3 Les rafales max. sont disponible 40 min après l'heure du relevé.

4 Pour les stations d'altitude (plus de 600m) le géopotentiel du niveau le plus proche de la pression obligatoire est indiqué.

5 Les stations disposant d'un diffuseur peuvent indiquer "trace". Cela signifie que des précipitations ont touchés le sol mais que la quantité est inférieure à 0.1 mm.

Récapitulatif de la journée
Température [°C] Vent [km/h] Ensoleillement4 [h] Precipitations totale5 [mm] Pression [Hpa]
Min1 Max.2 Moy.3 Max. Min Max.
10.6 19.1 5.9 16.7 0 h 0 min 0 1022.4 1025.1

1 Température minimale relevée entre 18:00 UTC la veille et 18:00 UTC le jour donné.

2 Température maximale relevée entre 06:00 UTC le jour donné et 06:00 UTC le lendemain.

3 Vent moyen de la journée basé sur les relevés horaires.

4 Ensoleillement en heures relevé entre 06:00 UTC la veille et 06:00 UTC le jour donné.

5 Précipitations totales tombées entre 06:00 UTC la jour donné et 06:00 UTC le lendemain.

Graphiques horaires